createdAt,value
2019-02-18T00:01:32.862Z,7.72
2019-02-18T00:04:03.113Z,7.73
2019-02-18T00:06:33.240Z,7.72
2019-02-18T00:09:04.940Z,7.69
2019-02-18T00:11:35.144Z,7.66
2019-02-18T00:14:05.373Z,7.62
2019-02-18T00:16:35.542Z,7.57
2019-02-18T00:19:06.941Z,7.54
2019-02-18T00:21:37.321Z,7.54
2019-02-18T00:24:07.527Z,7.49
2019-02-18T00:26:38.113Z,7.49
2019-02-18T00:29:08.572Z,7.51
2019-02-18T00:31:38.861Z,7.50
2019-02-18T00:34:09.434Z,7.50
2019-02-18T00:36:39.849Z,7.50
2019-02-18T00:39:10.364Z,7.49
2019-02-18T00:41:40.746Z,7.46
2019-02-18T00:44:11.290Z,7.45
2019-02-18T00:46:41.731Z,7.41
2019-02-18T00:49:12.422Z,7.38
2019-02-18T00:51:42.947Z,7.41
2019-02-18T00:54:13.271Z,7.43
2019-02-18T00:56:43.618Z,7.43
2019-02-18T00:59:13.883Z,7.40
2019-02-18T01:01:44.221Z,7.39
2019-02-18T01:04:14.515Z,7.35
2019-02-18T01:06:45.079Z,7.30
2019-02-18T01:09:15.392Z,7.27
2019-02-18T01:11:45.848Z,7.24
2019-02-18T01:14:16.273Z,7.20
2019-02-18T01:16:46.759Z,7.20
2019-02-18T01:19:17.031Z,7.21
2019-02-18T01:21:47.325Z,7.20
2019-02-18T01:24:17.895Z,7.18
2019-02-18T01:26:48.441Z,7.15
2019-02-18T01:29:18.673Z,7.16
2019-02-18T01:31:49.062Z,7.15
2019-02-18T01:34:19.312Z,7.14
2019-02-18T01:36:49.811Z,7.11
2019-02-18T01:39:20.270Z,7.07
2019-02-18T01:41:50.640Z,7.02
2019-02-18T01:44:20.809Z,7.01
2019-02-18T01:46:51.083Z,7.00
2019-02-18T01:49:21.449Z,6.98
2019-02-18T01:51:51.668Z,6.97
2019-02-18T01:54:22.272Z,6.94
2019-02-18T01:56:52.651Z,6.95
2019-02-18T01:59:23.186Z,6.94
2019-02-18T02:01:53.506Z,6.94
2019-02-18T02:04:23.722Z,6.94
2019-02-18T02:06:54.117Z,6.94
2019-02-18T02:09:24.559Z,6.94
2019-02-18T02:11:54.981Z,6.93
2019-02-18T02:14:25.184Z,6.92
2019-02-18T02:16:55.760Z,6.89
2019-02-18T02:19:26.060Z,6.88
2019-02-18T02:21:56.638Z,6.85
2019-02-18T02:24:26.857Z,6.82
2019-02-18T02:26:57.118Z,6.79
2019-02-18T02:29:27.439Z,6.77
2019-02-18T02:31:57.827Z,6.76
2019-02-18T02:34:28.106Z,6.70
2019-02-18T02:36:58.620Z,6.66
2019-02-18T02:39:29.142Z,6.62
2019-02-18T02:41:59.667Z,6.59
2019-02-18T02:44:30.103Z,6.56
2019-02-18T02:47:00.536Z,6.50
2019-02-18T02:49:30.896Z,6.43
2019-02-18T02:52:01.345Z,6.36
2019-02-18T02:54:31.702Z,6.30
2019-02-18T02:57:01.879Z,6.22
2019-02-18T02:59:32.467Z,6.16
2019-02-18T03:02:02.796Z,6.12
2019-02-18T03:04:32.939Z,6.07
2019-02-18T03:07:03.084Z,6.04
2019-02-18T03:09:33.201Z,6.00
2019-02-18T03:12:03.412Z,5.97
2019-02-18T03:14:33.773Z,5.94
2019-02-18T03:17:03.977Z,5.91
2019-02-18T03:19:34.250Z,5.90
2019-02-18T03:22:04.424Z,5.91
2019-02-18T03:24:34.593Z,5.88
2019-02-18T03:27:04.794Z,5.83
2019-02-18T03:30:40.376Z,5.79
2019-02-18T03:33:11.352Z,5.77
2019-02-18T03:35:48.880Z,5.69
2019-02-18T03:38:19.123Z,5.68
2019-02-18T03:40:49.280Z,5.66
2019-02-18T03:43:19.492Z,5.62
2019-02-18T03:45:49.699Z,5.61
2019-02-18T03:48:19.917Z,5.62
2019-02-18T03:50:50.177Z,5.62
2019-02-18T03:53:20.312Z,5.64
2019-02-18T03:55:50.561Z,5.66
2019-02-18T03:58:20.890Z,5.66
2019-02-18T04:00:51.154Z,5.63
2019-02-18T04:03:21.324Z,5.63
2019-02-18T04:05:51.463Z,5.64
2019-02-18T04:08:21.550Z,5.67
2019-02-18T04:10:51.731Z,5.67
2019-02-18T04:13:21.982Z,5.67
2019-02-18T04:15:52.309Z,5.67
2019-02-18T04:18:22.502Z,5.67
2019-02-18T04:20:52.748Z,5.67
2019-02-18T04:23:22.905Z,5.64
2019-02-18T04:25:53.023Z,5.68
2019-02-18T04:28:23.171Z,5.65
2019-02-18T04:30:53.386Z,5.61
2019-02-18T04:33:23.550Z,5.59
2019-02-18T04:35:53.776Z,5.60
2019-02-18T04:38:23.848Z,5.59
2019-02-18T04:40:54.013Z,5.59
2019-02-18T04:43:24.123Z,5.58
2019-02-18T04:45:54.190Z,5.59
2019-02-18T04:48:24.422Z,5.53
2019-02-18T04:50:54.737Z,5.53
2019-02-18T04:53:24.877Z,5.51
2019-02-18T04:55:54.975Z,5.50
2019-02-18T04:58:25.095Z,5.48
2019-02-18T05:00:55.740Z,5.44
2019-02-18T05:03:25.790Z,5.40
2019-02-18T05:05:57.852Z,5.38
2019-02-18T05:08:28.377Z,5.34
2019-02-18T05:10:58.894Z,5.31
2019-02-18T05:13:29.549Z,5.36
2019-02-18T05:18:29.327Z,5.42
2019-02-18T05:20:59.765Z,5.38
2019-02-18T05:23:30.678Z,5.38
2019-02-18T05:26:01.321Z,5.38
2019-02-18T05:28:32.100Z,5.35
2019-02-18T05:31:02.681Z,5.32
2019-02-18T05:33:33.231Z,5.27
2019-02-18T05:36:03.743Z,5.22
2019-02-18T05:38:34.381Z,5.18
2019-02-18T05:41:04.885Z,5.18
2019-02-18T05:43:35.255Z,5.17
2019-02-18T05:46:08.559Z,5.15
2019-02-18T05:48:38.411Z,5.14
2019-02-18T05:51:08.974Z,5.11
2019-02-18T05:53:39.692Z,5.08
2019-02-18T05:56:10.357Z,5.04
2019-02-18T05:58:41.835Z,5.01
2019-02-18T06:01:12.331Z,4.99
2019-02-18T06:03:42.714Z,4.94
2019-02-18T06:06:13.194Z,4.89
2019-02-18T06:08:43.700Z,4.83
2019-02-18T06:11:14.216Z,4.78
2019-02-18T06:13:44.586Z,4.74
2019-02-18T06:16:15.926Z,4.69
2019-02-18T06:18:46.566Z,4.68
2019-02-18T06:21:19.032Z,4.68
2019-02-18T06:23:49.529Z,4.64
2019-02-18T06:26:19.849Z,4.63
2019-02-18T06:28:50.393Z,4.60
2019-02-18T06:31:20.943Z,4.58
2019-02-18T06:33:51.307Z,4.54
2019-02-18T06:36:23.956Z,4.50
2019-02-18T06:38:54.439Z,4.51
2019-02-18T06:41:24.946Z,4.48
2019-02-18T06:43:55.502Z,4.46
2019-02-18T06:46:31.869Z,4.47
2019-02-18T06:49:08.668Z,4.44
2019-02-18T06:51:39.150Z,4.43
2019-02-18T06:54:09.696Z,4.41
2019-02-18T06:57:04.389Z,4.43
2019-02-18T06:59:38.303Z,4.42
2019-02-18T07:02:30.581Z,4.45
2019-02-18T07:05:35.059Z,4.47
2019-02-18T07:10:59.203Z,4.68
2019-02-18T07:13:29.715Z,4.69
2019-02-18T07:16:00.330Z,4.77
2019-02-18T07:18:30.873Z,4.81
2019-02-18T07:21:01.404Z,4.85
2019-02-18T07:23:31.886Z,4.89
2019-02-18T07:26:02.564Z,4.94
2019-02-18T07:28:33.160Z,5.00
2019-02-18T07:31:03.490Z,5.05
2019-02-18T07:33:33.593Z,5.09
2019-02-18T07:36:03.891Z,5.10
2019-02-18T07:38:34.227Z,5.15
2019-02-18T07:41:04.443Z,5.21
2019-02-18T07:43:34.746Z,5.25
2019-02-18T07:46:05.078Z,5.31
2019-02-18T07:48:36.788Z,5.36
2019-02-18T07:51:07.195Z,5.43
2019-02-18T07:53:37.379Z,5.49
2019-02-18T07:56:07.792Z,5.54
2019-02-18T07:58:37.916Z,5.63
2019-02-18T08:01:08.336Z,5.71
2019-02-18T08:03:38.508Z,5.75
2019-02-18T08:06:08.769Z,5.82
2019-02-18T08:08:38.953Z,5.88
2019-02-18T08:11:12.260Z,5.93
2019-02-18T08:13:42.733Z,5.99
2019-02-18T08:16:12.999Z,6.04
2019-02-18T08:18:43.253Z,6.11
2019-02-18T08:21:13.510Z,6.16
2019-02-18T08:23:45.519Z,6.21
2019-02-18T08:26:15.821Z,6.28
2019-02-18T08:28:46.063Z,6.33
2019-02-18T08:31:55.848Z,6.37
2019-02-18T08:34:26.082Z,6.44
2019-02-18T08:36:56.355Z,6.50
2019-02-18T08:39:27.070Z,6.58
2019-02-18T08:41:58.042Z,6.65
2019-02-18T08:44:28.433Z,6.73
2019-02-18T08:46:58.621Z,6.81
2019-02-18T08:49:29.045Z,6.87
2019-02-18T08:51:59.272Z,6.93
2019-02-18T08:54:29.471Z,7.02
2019-02-18T08:57:02.241Z,7.10
2019-02-18T08:59:32.617Z,7.19
2019-02-18T09:02:03.096Z,7.28
2019-02-18T09:04:33.528Z,7.37
2019-02-18T09:07:03.950Z,7.45
2019-02-18T09:09:34.434Z,7.53
2019-02-18T09:12:04.780Z,7.60
2019-02-18T09:14:35.300Z,7.69
2019-02-18T09:17:06.866Z,7.77
2019-02-18T09:19:37.021Z,7.86
2019-02-18T09:22:25.806Z,7.92
2019-02-18T09:25:11.298Z,8.00
2019-02-18T09:27:41.692Z,8.04
2019-02-18T09:30:11.985Z,8.12
2019-02-18T09:32:43.716Z,8.20
2019-02-18T09:35:16.016Z,8.27
2019-02-18T09:37:46.214Z,8.33
2019-02-18T09:40:16.706Z,8.41
2019-02-18T09:42:46.930Z,8.49
2019-02-18T09:45:17.356Z,8.55
2019-02-18T09:47:47.619Z,8.64
2019-02-18T09:50:21.392Z,8.70
2019-02-18T09:52:51.677Z,8.80
2019-02-18T09:55:22.113Z,8.89
2019-02-18T09:57:52.431Z,8.99
2019-02-18T10:00:22.705Z,9.08
2019-02-18T10:02:53.040Z,9.17
2019-02-18T10:05:23.386Z,9.25
2019-02-18T10:07:54.829Z,9.34
2019-02-18T10:10:25.475Z,9.43
2019-02-18T10:12:59.741Z,9.47
2019-02-18T10:15:30.260Z,9.54
2019-02-18T10:18:00.678Z,9.65
2019-02-18T10:20:31.057Z,9.76
2019-02-18T10:23:21.718Z,9.87
2019-02-18T10:25:58.859Z,9.95
2019-02-18T10:28:29.532Z,10.06
2019-02-18T10:31:02.551Z,10.16
2019-02-18T10:33:33.622Z,10.27
2019-02-18T10:36:03.957Z,10.39
2019-02-18T10:38:36.131Z,10.49
2019-02-18T10:41:10.271Z,10.58
2019-02-18T10:43:45.677Z,10.68
2019-02-18T10:46:21.504Z,10.75
2019-02-18T10:49:19.328Z,10.85
2019-02-18T10:51:47.782Z,10.95
2019-02-18T10:54:17.963Z,11.09
2019-02-18T10:57:00.000Z,11.20
2019-02-18T10:59:30.306Z,11.29
2019-02-18T11:02:01.815Z,11.39
2019-02-18T11:04:36.161Z,11.50
2019-02-18T11:07:08.150Z,11.58
2019-02-18T11:09:38.502Z,11.68
2019-02-18T11:12:08.801Z,11.80
2019-02-18T11:14:45.756Z,11.89
2019-02-18T11:17:17.910Z,12.00
2019-02-18T11:19:48.137Z,12.07
2019-02-18T11:22:19.108Z,12.17
2019-02-18T11:24:49.430Z,12.31
2019-02-18T11:27:19.614Z,12.44
2019-02-18T11:29:49.858Z,12.55
2019-02-18T11:32:20.081Z,12.64
2019-02-18T11:34:50.514Z,12.73
2019-02-18T11:37:20.683Z,12.83
2019-02-18T11:39:50.847Z,12.93
2019-02-18T11:42:21.060Z,13.03
2019-02-18T11:44:51.220Z,13.10
2019-02-18T11:47:21.484Z,13.19
2019-02-18T11:49:51.738Z,13.29
2019-02-18T11:52:22.023Z,13.38
2019-02-18T11:54:52.179Z,13.47
2019-02-18T11:57:22.459Z,13.59
2019-02-18T11:59:52.707Z,13.67
2019-02-18T12:02:23.240Z,13.80
2019-02-18T12:04:54.637Z,13.92
2019-02-18T12:07:26.999Z,14.04
2019-02-18T12:09:58.636Z,14.13
2019-02-18T12:12:31.145Z,14.22
2019-02-18T12:15:19.478Z,14.30
2019-02-18T12:17:57.678Z,14.40
2019-02-18T12:20:27.945Z,14.51
2019-02-18T12:22:58.129Z,14.56
2019-02-18T12:25:28.329Z,14.63
2019-02-18T12:27:58.500Z,14.71
2019-02-18T12:30:28.858Z,14.79
2019-02-18T12:32:59.218Z,14.88
2019-02-18T12:35:31.542Z,14.98
2019-02-18T12:38:02.614Z,15.11
2019-02-18T12:40:34.488Z,15.21
2019-02-18T12:43:04.753Z,15.31
2019-02-18T12:45:35.007Z,15.43
2019-02-18T12:48:05.242Z,15.49
2019-02-18T12:50:35.860Z,15.54
2019-02-18T12:53:08.866Z,15.57
2019-02-18T12:55:40.979Z,15.58
2019-02-18T12:58:11.157Z,15.62
2019-02-18T13:00:41.353Z,15.67
2019-02-18T13:03:11.819Z,15.72
2019-02-18T13:05:42.378Z,15.75
2019-02-18T13:08:12.603Z,15.73
2019-02-18T13:10:42.971Z,15.74
2019-02-18T13:13:13.501Z,16.07
2019-02-18T13:15:43.817Z,16.83
2019-02-18T13:18:14.014Z,17.54
2019-02-18T13:20:44.296Z,18.00
2019-02-18T13:23:15.956Z,18.53
2019-02-18T13:25:47.610Z,18.94
2019-02-18T13:28:18.278Z,19.28
2019-02-18T13:30:48.641Z,19.65
2019-02-18T13:33:18.902Z,19.95
2019-02-18T13:35:49.244Z,19.94
2019-02-18T13:38:19.613Z,19.88
2019-02-18T13:40:49.912Z,19.76
2019-02-18T13:43:20.171Z,19.69
2019-02-18T13:45:50.451Z,19.79
2019-02-18T13:48:20.833Z,20.04
2019-02-18T13:50:51.189Z,20.37
2019-02-18T13:53:21.362Z,20.55
2019-02-18T13:55:51.518Z,20.18
2019-02-18T13:58:21.717Z,19.54
2019-02-18T14:00:51.909Z,18.92
2019-02-18T14:03:22.269Z,18.35
2019-02-18T14:05:52.535Z,17.92
2019-02-18T14:08:22.757Z,17.56
2019-02-18T14:10:53.208Z,17.24
2019-02-18T14:13:23.485Z,17.06
2019-02-18T14:15:53.706Z,16.96
2019-02-18T14:18:24.287Z,16.94
2019-02-18T14:20:54.774Z,16.90
2019-02-18T14:23:25.001Z,16.86
2019-02-18T14:25:57.032Z,16.84
2019-02-18T14:28:27.304Z,16.81
2019-02-18T14:30:57.804Z,16.71
2019-02-18T14:33:28.046Z,16.61
2019-02-18T14:36:00.085Z,16.49
2019-02-18T14:38:30.319Z,16.39
2019-02-18T14:41:00.666Z,16.32
2019-02-18T14:43:30.940Z,16.30
2019-02-18T14:46:01.284Z,16.22
2019-02-18T14:48:31.609Z,16.18
2019-02-18T14:51:02.091Z,16.17
2019-02-18T14:53:32.464Z,16.14
2019-02-18T14:56:04.729Z,16.12
2019-02-18T14:58:35.912Z,16.11
2019-02-18T15:01:09.092Z,16.09
2019-02-18T15:03:39.321Z,16.07
2019-02-18T15:06:09.928Z,16.03
2019-02-18T15:08:41.862Z,15.98
2019-02-18T15:11:27.398Z,16.10
2019-02-18T15:14:01.945Z,16.01
2019-02-18T15:16:55.962Z,15.97
2019-02-18T15:19:28.745Z,15.91
2019-02-18T15:21:59.108Z,15.85
2019-02-18T15:24:29.751Z,15.78
2019-02-18T15:27:02.914Z,15.81
2019-02-18T15:29:36.632Z,15.84
2019-02-18T15:32:06.899Z,15.84
2019-02-18T15:34:37.151Z,15.82
2019-02-18T15:37:07.444Z,15.80
2019-02-18T15:39:37.737Z,15.76
2019-02-18T15:42:08.370Z,15.69
2019-02-18T15:44:38.658Z,15.59
2019-02-18T15:47:12.147Z,15.48
2019-02-18T15:49:50.281Z,15.39
2019-02-18T15:52:20.532Z,15.28
2019-02-18T15:54:51.350Z,15.17
2019-02-18T15:57:21.788Z,15.08
2019-02-18T15:59:52.244Z,14.99
2019-02-18T16:02:26.894Z,14.90
2019-02-18T16:04:59.434Z,14.80
2019-02-18T16:07:36.069Z,14.73
2019-02-18T16:10:07.624Z,14.66
2019-02-18T16:12:38.040Z,14.59
2019-02-18T16:15:08.897Z,14.48
2019-02-18T16:17:39.225Z,14.36
2019-02-18T16:20:11.042Z,14.25
2019-02-18T16:22:41.490Z,14.12
2019-02-18T16:25:15.727Z,13.98
2019-02-18T16:27:46.319Z,13.84
2019-02-18T16:30:20.091Z,13.69
2019-02-18T16:33:01.751Z,13.53
2019-02-18T16:35:36.059Z,13.41
2019-02-18T16:38:07.773Z,13.26
2019-02-18T16:40:38.739Z,13.09
2019-02-18T16:43:09.629Z,12.93
2019-02-18T16:45:40.207Z,12.80
2019-02-18T16:48:11.145Z,12.64
2019-02-18T16:50:41.694Z,12.48
2019-02-18T16:53:12.415Z,12.34
2019-02-18T16:55:43.182Z,12.20
2019-02-18T17:01:00.682Z,12.03
2019-02-18T17:03:30.959Z,11.85
2019-02-18T17:06:01.226Z,11.71
2019-02-18T17:08:31.403Z,11.60
2019-02-18T17:11:01.657Z,11.47
2019-02-18T17:13:31.987Z,11.39
2019-02-18T17:16:02.251Z,11.30
2019-02-18T17:18:32.921Z,11.20
2019-02-18T17:21:03.172Z,11.11
2019-02-18T17:23:33.457Z,11.01
2019-02-18T17:26:03.833Z,10.88
2019-02-18T17:28:35.666Z,10.83
2019-02-18T17:31:06.866Z,10.76
2019-02-18T17:33:37.027Z,10.66
2019-02-18T17:36:07.492Z,10.57
2019-02-18T17:38:37.733Z,10.51
2019-02-18T17:41:09.095Z,10.44
2019-02-18T17:43:39.261Z,10.37
2019-02-18T17:46:09.852Z,10.32
2019-02-18T17:48:40.018Z,10.25
2019-02-18T17:51:10.255Z,10.17
2019-02-18T17:53:40.582Z,10.11
2019-02-18T17:56:10.767Z,10.07
2019-02-18T17:58:41.193Z,10.00
2019-02-18T18:01:11.624Z,9.97
2019-02-18T18:03:41.856Z,9.91
2019-02-18T18:06:12.072Z,9.86
2019-02-18T18:08:42.329Z,9.80
2019-02-18T18:11:12.695Z,9.74
2019-02-18T18:13:43.539Z,9.69
2019-02-18T18:16:16.247Z,9.65
2019-02-18T18:18:46.763Z,9.60
2019-02-18T18:21:17.396Z,9.55
2019-02-18T18:23:50.726Z,9.51
2019-02-18T18:26:21.948Z,9.46
2019-02-18T18:28:52.909Z,9.40
2019-02-18T18:31:23.623Z,9.34
2019-02-18T18:33:54.245Z,9.28
2019-02-18T18:36:24.744Z,9.18
2019-02-18T18:38:57.202Z,9.10
2019-02-18T18:41:30.168Z,9.03
2019-02-18T18:44:02.724Z,8.95
2019-02-18T18:46:39.302Z,8.87
2019-02-18T18:49:09.912Z,8.81
2019-02-18T18:51:40.676Z,8.78
2019-02-18T18:54:11.006Z,8.70
2019-02-18T18:56:41.835Z,8.71
2019-02-18T18:59:12.548Z,8.69
2019-02-18T19:01:43.372Z,8.65
2019-02-18T19:04:14.260Z,8.63
2019-02-18T19:06:47.217Z,8.62
2019-02-18T19:09:17.889Z,8.60
2019-02-18T19:11:48.529Z,8.60
2019-02-18T19:14:19.336Z,8.60
2019-02-18T19:16:50.133Z,8.62
2019-02-18T19:19:20.731Z,8.73
2019-02-18T19:21:51.210Z,8.85
2019-02-18T19:24:21.940Z,8.94
2019-02-18T19:26:52.580Z,9.06
2019-02-18T19:29:23.427Z,9.14
2019-02-18T19:31:54.101Z,9.24
2019-02-18T19:34:25.062Z,9.30
2019-02-18T19:36:55.696Z,9.37
2019-02-18T19:39:26.334Z,9.44
2019-02-18T19:41:57.176Z,9.48
2019-02-18T19:44:28.110Z,9.54
2019-02-18T19:46:58.857Z,9.56
2019-02-18T19:49:29.441Z,9.62
2019-02-18T19:52:00.283Z,9.65
2019-02-18T19:54:31.042Z,9.70
2019-02-18T19:57:01.768Z,9.79
2019-02-18T19:59:32.168Z,9.87
2019-02-18T20:02:02.849Z,10.00
2019-02-18T20:04:34.782Z,10.12
2019-02-18T20:07:05.347Z,10.23
2019-02-18T20:09:35.969Z,10.33
2019-02-18T20:12:07.758Z,10.42
2019-02-18T20:14:38.516Z,10.48
2019-02-18T20:17:09.106Z,10.56
2019-02-18T20:19:39.579Z,10.62
2019-02-18T20:22:10.339Z,10.66
2019-02-18T20:24:40.864Z,10.68
2019-02-18T20:27:11.363Z,10.66
2019-02-18T20:32:27.445Z,10.68
2019-02-18T20:34:58.086Z,10.55
2019-02-18T20:37:28.841Z,10.50
2019-02-18T20:39:59.484Z,10.46
2019-02-18T20:42:31.591Z,10.38
2019-02-18T20:45:02.824Z,10.35
2019-02-18T20:47:33.880Z,10.24
2019-02-18T20:50:04.410Z,10.12
2019-02-18T20:52:35.010Z,10.01
2019-02-18T20:55:05.868Z,9.93
2019-02-18T20:57:36.779Z,9.84
2019-02-18T21:00:12.751Z,9.77
2019-02-18T21:02:43.289Z,9.72
2019-02-18T21:05:13.824Z,9.63
2019-02-18T21:07:54.889Z,9.54
2019-02-18T21:12:45.701Z,9.48
2019-02-18T21:15:16.267Z,9.39
2019-02-18T21:17:46.985Z,9.38
2019-02-18T21:20:17.561Z,9.37
2019-02-18T21:22:48.543Z,9.36
2019-02-18T21:25:19.166Z,9.35
2019-02-18T21:27:49.724Z,9.38
2019-02-18T21:30:20.320Z,9.37
2019-02-18T21:32:54.081Z,9.36
2019-02-18T21:35:24.866Z,9.35
2019-02-18T21:37:55.443Z,9.28
2019-02-18T21:40:28.900Z,9.30
2019-02-18T21:42:59.413Z,9.24
2019-02-18T21:45:30.045Z,9.21
2019-02-18T21:48:00.791Z,9.14
2019-02-18T21:50:31.331Z,9.11
2019-02-18T21:53:01.997Z,9.12
2019-02-18T21:55:32.643Z,9.13
2019-02-18T21:58:03.209Z,9.13
2019-02-18T22:00:33.824Z,9.16
2019-02-18T22:03:04.503Z,9.17
2019-02-18T22:05:35.045Z,9.20
2019-02-18T22:08:06.113Z,9.21
2019-02-18T22:10:36.708Z,9.13
2019-02-18T22:13:07.582Z,9.15
2019-02-18T22:15:38.436Z,9.10
2019-02-18T22:18:10.581Z,9.05
2019-02-18T22:20:43.694Z,8.95
2019-02-18T22:23:14.389Z,8.89
2019-02-18T22:25:45.974Z,8.83
2019-02-18T22:28:16.485Z,8.82
2019-02-18T22:30:47.149Z,8.82
2019-02-18T22:33:17.789Z,8.83
2019-02-18T22:35:48.299Z,8.85
2019-02-18T22:38:18.872Z,8.85
2019-02-18T22:40:49.353Z,8.87
2019-02-18T22:43:20.288Z,8.85
2019-02-18T22:45:50.720Z,8.82
2019-02-18T22:48:20.891Z,8.83
2019-02-18T22:50:51.126Z,8.82
2019-02-18T22:53:21.312Z,8.78
2019-02-18T22:55:51.492Z,8.76
2019-02-18T22:58:21.978Z,8.74
2019-02-18T23:01:00.567Z,8.72
2019-02-18T23:03:30.964Z,8.71
2019-02-18T23:06:01.340Z,8.71
2019-02-18T23:08:31.613Z,8.73
2019-02-18T23:11:02.155Z,8.74
2019-02-18T23:13:32.317Z,8.76
2019-02-18T23:16:02.617Z,8.79
2019-02-18T23:18:32.827Z,8.82
2019-02-18T23:21:03.193Z,8.85
2019-02-18T23:23:33.465Z,8.87
2019-02-18T23:26:04.065Z,8.88
2019-02-18T23:28:34.344Z,8.89
2019-02-18T23:31:04.607Z,8.94
2019-02-18T23:33:38.025Z,8.98
2019-02-18T23:36:08.198Z,9.04
2019-02-18T23:38:38.267Z,9.08
2019-02-18T23:41:08.508Z,9.12
2019-02-18T23:43:38.787Z,9.17
2019-02-18T23:46:09.078Z,9.21
2019-02-18T23:48:39.315Z,9.23
2019-02-18T23:51:09.477Z,9.28
2019-02-18T23:53:39.662Z,9.32
2019-02-18T23:56:09.959Z,9.35
2019-02-18T23:58:40.179Z,9.39
